sensor_id;sensor_type;location;lat;lon;timestamp;P1;durP1;ratioP1;P2;durP2;ratioP2
16514;SDS011;8370;52.556;7.970;2023-04-24T00:02:22;1.40;;;1.20;;
16514;SDS011;8370;52.556;7.970;2023-04-24T00:04:47;1.50;;;1.40;;
16514;SDS011;8370;52.556;7.970;2023-04-24T00:07:13;1.67;;;1.20;;
16514;SDS011;8370;52.556;7.970;2023-04-24T00:09:41;1.70;;;1.60;;
16514;SDS011;8370;52.556;7.970;2023-04-24T00:12:07;1.77;;;1.67;;
16514;SDS011;8370;52.556;7.970;2023-04-24T00:14:33;1.90;;;1.80;;
16514;SDS011;8370;52.556;7.970;2023-04-24T00:17:00;2.40;;;2.20;;
16514;SDS011;8370;52.556;7.970;2023-04-24T00:19:27;2.27;;;2.03;;
16514;SDS011;8370;52.556;7.970;2023-04-24T00:21:53;3.47;;;2.27;;
16514;SDS011;8370;52.556;7.970;2023-04-24T00:24:18;2.70;;;2.00;;
16514;SDS011;8370;52.556;7.970;2023-04-24T00:26:44;2.50;;;2.30;;
16514;SDS011;8370;52.556;7.970;2023-04-24T00:29:10;2.40;;;2.20;;
16514;SDS011;8370;52.556;7.970;2023-04-24T00:31:35;2.17;;;1.97;;
16514;SDS011;8370;52.556;7.970;2023-04-24T00:34:01;2.67;;;1.83;;
16514;SDS011;8370;52.556;7.970;2023-04-24T00:36:27;2.33;;;1.80;;
16514;SDS011;8370;52.556;7.970;2023-04-24T00:38:54;2.10;;;2.00;;
16514;SDS011;8370;52.556;7.970;2023-04-24T00:41:20;3.43;;;2.37;;
16514;SDS011;8370;52.556;7.970;2023-04-24T00:43:46;2.47;;;1.90;;
16514;SDS011;8370;52.556;7.970;2023-04-24T00:46:12;2.43;;;2.23;;
16514;SDS011;8370;52.556;7.970;2023-04-24T00:48:39;2.33;;;2.13;;
16514;SDS011;8370;52.556;7.970;2023-04-24T00:51:05;2.37;;;2.20;;
16514;SDS011;8370;52.556;7.970;2023-04-24T00:53:30;2.20;;;2.00;;
16514;SDS011;8370;52.556;7.970;2023-04-24T00:55:56;2.93;;;2.20;;
16514;SDS011;8370;52.556;7.970;2023-04-24T00:58:22;3.40;;;2.30;;
16514;SDS011;8370;52.556;7.970;2023-04-24T01:00:49;2.97;;;2.00;;
16514;SDS011;8370;52.556;7.970;2023-04-24T01:03:18;2.90;;;2.33;;
16514;SDS011;8370;52.556;7.970;2023-04-24T01:05:47;2.63;;;2.37;;
16514;SDS011;8370;52.556;7.970;2023-04-24T01:08:14;1.70;;;1.60;;
16514;SDS011;8370;52.556;7.970;2023-04-24T01:10:40;2.70;;;2.20;;
16514;SDS011;8370;52.556;7.970;2023-04-24T01:13:07;1.90;;;1.80;;
16514;SDS011;8370;52.556;7.970;2023-04-24T01:15:33;1.87;;;1.60;;
16514;SDS011;8370;52.556;7.970;2023-04-24T01:17:59;1.90;;;1.77;;
16514;SDS011;8370;52.556;7.970;2023-04-24T01:20:25;2.30;;;1.83;;
16514;SDS011;8370;52.556;7.970;2023-04-24T01:22:51;1.90;;;1.63;;
16514;SDS011;8370;52.556;7.970;2023-04-24T01:25:17;2.63;;;1.83;;
16514;SDS011;8370;52.556;7.970;2023-04-24T01:27:43;2.23;;;2.03;;
16514;SDS011;8370;52.556;7.970;2023-04-24T01:30:09;2.60;;;2.40;;
16514;SDS011;8370;52.556;7.970;2023-04-24T01:32:35;3.47;;;3.17;;
16514;SDS011;8370;52.556;7.970;2023-04-24T01:35:02;4.57;;;3.90;;
16514;SDS011;8370;52.556;7.970;2023-04-24T01:37:28;5.20;;;4.37;;
16514;SDS011;8370;52.556;7.970;2023-04-24T01:39:53;6.73;;;5.00;;
16514;SDS011;8370;52.556;7.970;2023-04-24T01:42:19;5.70;;;5.17;;
16514;SDS011;8370;52.556;7.970;2023-04-24T01:44:44;8.00;;;5.80;;
16514;SDS011;8370;52.556;7.970;2023-04-24T01:47:10;7.90;;;6.30;;
16514;SDS011;8370;52.556;7.970;2023-04-24T01:49:37;6.77;;;6.07;;
16514;SDS011;8370;52.556;7.970;2023-04-24T01:52:03;8.60;;;6.67;;
16514;SDS011;8370;52.556;7.970;2023-04-24T01:54:29;7.27;;;6.57;;
16514;SDS011;8370;52.556;7.970;2023-04-24T01:56:55;7.63;;;6.40;;
16514;SDS011;8370;52.556;7.970;2023-04-24T01:59:20;7.40;;;6.27;;
16514;SDS011;8370;52.556;7.970;2023-04-24T02:01:48;7.43;;;6.20;;
16514;SDS011;8370;52.556;7.970;2023-04-24T02:04:13;7.80;;;6.83;;
16514;SDS011;8370;52.556;7.970;2023-04-24T02:06:40;7.47;;;6.67;;
16514;SDS011;8370;52.556;7.970;2023-04-24T02:09:05;8.00;;;6.53;;
16514;SDS011;8370;52.556;7.970;2023-04-24T02:11:31;6.77;;;5.97;;
16514;SDS011;8370;52.556;7.970;2023-04-24T02:13:56;9.93;;;6.80;;
16514;SDS011;8370;52.556;7.970;2023-04-24T02:16:22;7.53;;;6.70;;
16514;SDS011;8370;52.556;7.970;2023-04-24T02:18:48;6.63;;;5.97;;
16514;SDS011;8370;52.556;7.970;2023-04-24T02:21:13;6.77;;;5.73;;
16514;SDS011;8370;52.556;7.970;2023-04-24T02:23:39;7.03;;;6.23;;
16514;SDS011;8370;52.556;7.970;2023-04-24T02:26:05;7.00;;;5.93;;
16514;SDS011;8370;52.556;7.970;2023-04-24T02:28:30;7.87;;;5.90;;
16514;SDS011;8370;52.556;7.970;2023-04-24T02:30:56;6.53;;;5.40;;
16514;SDS011;8370;52.556;7.970;2023-04-24T02:33:21;9.37;;;5.23;;
16514;SDS011;8370;52.556;7.970;2023-04-24T02:35:47;6.83;;;5.53;;
16514;SDS011;8370;52.556;7.970;2023-04-24T02:38:12;7.47;;;5.43;;
16514;SDS011;8370;52.556;7.970;2023-04-24T02:40:38;6.33;;;5.50;;
16514;SDS011;8370;52.556;7.970;2023-04-24T02:43:03;7.50;;;5.63;;
16514;SDS011;8370;52.556;7.970;2023-04-24T02:45:29;6.67;;;5.67;;
16514;SDS011;8370;52.556;7.970;2023-04-24T02:47:54;7.27;;;5.73;;
16514;SDS011;8370;52.556;7.970;2023-04-24T02:50:20;6.97;;;5.30;;
16514;SDS011;8370;52.556;7.970;2023-04-24T02:52:45;7.57;;;6.00;;
16514;SDS011;8370;52.556;7.970;2023-04-24T02:55:11;6.97;;;6.27;;
16514;SDS011;8370;52.556;7.970;2023-04-24T02:57:36;6.33;;;5.20;;
16514;SDS011;8370;52.556;7.970;2023-04-24T03:00:02;8.57;;;6.77;;
16514;SDS011;8370;52.556;7.970;2023-04-24T03:02:28;6.77;;;5.90;;
16514;SDS011;8370;52.556;7.970;2023-04-24T03:04:53;6.70;;;5.73;;
16514;SDS011;8370;52.556;7.970;2023-04-24T03:07:19;7.03;;;5.60;;
16514;SDS011;8370;52.556;7.970;2023-04-24T03:09:45;7.43;;;5.33;;
16514;SDS011;8370;52.556;7.970;2023-04-24T03:12:12;6.53;;;5.17;;
16514;SDS011;8370;52.556;7.970;2023-04-24T03:14:37;5.30;;;4.80;;
16514;SDS011;8370;52.556;7.970;2023-04-24T03:17:03;6.43;;;4.53;;
16514;SDS011;8370;52.556;7.970;2023-04-24T03:19:28;5.60;;;4.47;;
16514;SDS011;8370;52.556;7.970;2023-04-24T03:21:54;4.80;;;4.17;;
16514;SDS011;8370;52.556;7.970;2023-04-24T03:24:19;5.43;;;4.00;;
16514;SDS011;8370;52.556;7.970;2023-04-24T03:26:45;4.00;;;3.60;;
16514;SDS011;8370;52.556;7.970;2023-04-24T03:29:11;5.13;;;3.80;;
16514;SDS011;8370;52.556;7.970;2023-04-24T03:31:36;4.17;;;3.53;;
16514;SDS011;8370;52.556;7.970;2023-04-24T03:34:02;5.73;;;4.00;;
16514;SDS011;8370;52.556;7.970;2023-04-24T03:36:27;6.57;;;3.70;;
16514;SDS011;8370;52.556;7.970;2023-04-24T03:38:53;5.83;;;4.27;;
16514;SDS011;8370;52.556;7.970;2023-04-24T03:41:18;4.23;;;3.73;;
16514;SDS011;8370;52.556;7.970;2023-04-24T03:43:44;5.03;;;3.40;;
16514;SDS011;8370;52.556;7.970;2023-04-24T03:46:09;5.80;;;3.53;;
16514;SDS011;8370;52.556;7.970;2023-04-24T03:48:35;6.30;;;3.87;;
16514;SDS011;8370;52.556;7.970;2023-04-24T03:51:00;4.23;;;3.53;;
16514;SDS011;8370;52.556;7.970;2023-04-24T03:53:26;5.03;;;3.37;;
16514;SDS011;8370;52.556;7.970;2023-04-24T03:55:52;4.40;;;3.17;;
16514;SDS011;8370;52.556;7.970;2023-04-24T03:58:18;4.30;;;3.43;;
16514;SDS011;8370;52.556;7.970;2023-04-24T04:00:44;4.63;;;3.33;;
16514;SDS011;8370;52.556;7.970;2023-04-24T04:03:09;6.13;;;3.53;;
16514;SDS011;8370;52.556;7.970;2023-04-24T04:05:35;5.37;;;3.53;;
16514;SDS011;8370;52.556;7.970;2023-04-24T04:08:00;4.70;;;4.07;;
16514;SDS011;8370;52.556;7.970;2023-04-24T04:10:26;6.60;;;4.07;;
16514;SDS011;8370;52.556;7.970;2023-04-24T04:12:51;5.97;;;4.93;;
16514;SDS011;8370;52.556;7.970;2023-04-24T04:15:17;4.70;;;3.47;;
16514;SDS011;8370;52.556;7.970;2023-04-24T04:17:42;9.20;;;4.77;;
16514;SDS011;8370;52.556;7.970;2023-04-24T04:20:08;6.07;;;4.20;;
16514;SDS011;8370;52.556;7.970;2023-04-24T04:22:36;5.87;;;4.30;;
16514;SDS011;8370;52.556;7.970;2023-04-24T04:25:02;6.57;;;4.67;;
16514;SDS011;8370;52.556;7.970;2023-04-24T04:27:29;7.03;;;5.30;;
16514;SDS011;8370;52.556;7.970;2023-04-24T04:29:57;6.63;;;4.53;;
16514;SDS011;8370;52.556;7.970;2023-04-24T04:32:32;7.37;;;5.37;;
16514;SDS011;8370;52.556;7.970;2023-04-24T04:34:59;7.10;;;5.47;;
16514;SDS011;8370;52.556;7.970;2023-04-24T04:37:27;8.63;;;6.17;;
16514;SDS011;8370;52.556;7.970;2023-04-24T04:39:54;9.70;;;5.17;;
16514;SDS011;8370;52.556;7.970;2023-04-24T04:42:19;8.70;;;5.50;;
16514;SDS011;8370;52.556;7.970;2023-04-24T04:44:45;9.43;;;6.30;;
16514;SDS011;8370;52.556;7.970;2023-04-24T04:47:11;10.43;;;5.90;;
16514;SDS011;8370;52.556;7.970;2023-04-24T04:49:37;9.57;;;6.50;;
16514;SDS011;8370;52.556;7.970;2023-04-24T04:52:03;8.47;;;6.00;;
16514;SDS011;8370;52.556;7.970;2023-04-24T04:54:29;10.27;;;6.73;;
16514;SDS011;8370;52.556;7.970;2023-04-24T04:56:55;8.57;;;6.40;;
16514;SDS011;8370;52.556;7.970;2023-04-24T04:59:22;9.00;;;6.40;;
16514;SDS011;8370;52.556;7.970;2023-04-24T05:01:47;14.10;;;7.40;;
16514;SDS011;8370;52.556;7.970;2023-04-24T05:04:13;10.73;;;7.27;;
16514;SDS011;8370;52.556;7.970;2023-04-24T05:06:38;10.50;;;7.40;;
16514;SDS011;8370;52.556;7.970;2023-04-24T05:09:04;12.60;;;8.27;;
16514;SDS011;8370;52.556;7.970;2023-04-24T05:11:30;11.00;;;7.57;;
16514;SDS011;8370;52.556;7.970;2023-04-24T05:13:55;12.97;;;7.90;;
16514;SDS011;8370;52.556;7.970;2023-04-24T05:16:21;11.77;;;8.20;;
16514;SDS011;8370;52.556;7.970;2023-04-24T05:18:46;12.07;;;8.00;;
16514;SDS011;8370;52.556;7.970;2023-04-24T05:21:12;13.67;;;8.43;;
16514;SDS011;8370;52.556;7.970;2023-04-24T05:23:37;13.57;;;8.13;;
16514;SDS011;8370;52.556;7.970;2023-04-24T05:26:03;18.43;;;8.67;;
16514;SDS011;8370;52.556;7.970;2023-04-24T05:28:28;14.00;;;9.23;;
16514;SDS011;8370;52.556;7.970;2023-04-24T05:30:54;14.60;;;9.40;;
16514;SDS011;8370;52.556;7.970;2023-04-24T05:33:20;16.17;;;9.80;;
16514;SDS011;8370;52.556;7.970;2023-04-24T05:35:47;16.60;;;9.03;;
16514;SDS011;8370;52.556;7.970;2023-04-24T05:38:13;15.67;;;9.67;;
16514;SDS011;8370;52.556;7.970;2023-04-24T05:43:06;13.03;;;9.33;;
16514;SDS011;8370;52.556;7.970;2023-04-24T05:45:32;14.40;;;9.90;;
16514;SDS011;8370;52.556;7.970;2023-04-24T05:47:57;11.97;;;8.97;;
16514;SDS011;8370;52.556;7.970;2023-04-24T05:50:23;11.30;;;7.97;;
16514;SDS011;8370;52.556;7.970;2023-04-24T05:52:48;13.77;;;8.50;;
16514;SDS011;8370;52.556;7.970;2023-04-24T05:55:14;16.53;;;8.23;;
16514;SDS011;8370;52.556;7.970;2023-04-24T05:57:42;11.60;;;7.70;;
16514;SDS011;8370;52.556;7.970;2023-04-24T06:00:07;13.10;;;8.13;;
16514;SDS011;8370;52.556;7.970;2023-04-24T06:02:36;12.97;;;8.13;;
16514;SDS011;8370;52.556;7.970;2023-04-24T06:05:02;12.83;;;8.07;;
16514;SDS011;8370;52.556;7.970;2023-04-24T06:07:29;12.67;;;7.97;;
16514;SDS011;8370;52.556;7.970;2023-04-24T06:09:55;9.63;;;6.90;;
16514;SDS011;8370;52.556;7.970;2023-04-24T06:12:21;12.53;;;7.97;;
16514;SDS011;8370;52.556;7.970;2023-04-24T06:14:47;12.97;;;8.17;;
16514;SDS011;8370;52.556;7.970;2023-04-24T06:17:13;11.30;;;7.40;;
16514;SDS011;8370;52.556;7.970;2023-04-24T06:19:38;11.63;;;8.20;;
16514;SDS011;8370;52.556;7.970;2023-04-24T06:22:04;11.47;;;7.57;;
16514;SDS011;8370;52.556;7.970;2023-04-24T06:24:30;10.23;;;7.77;;
16514;SDS011;8370;52.556;7.970;2023-04-24T06:26:55;11.13;;;8.27;;
16514;SDS011;8370;52.556;7.970;2023-04-24T06:29:22;9.87;;;7.20;;
16514;SDS011;8370;52.556;7.970;2023-04-24T06:31:48;13.27;;;7.77;;
16514;SDS011;8370;52.556;7.970;2023-04-24T06:34:13;13.53;;;8.23;;
16514;SDS011;8370;52.556;7.970;2023-04-24T06:36:39;15.50;;;8.40;;
16514;SDS011;8370;52.556;7.970;2023-04-24T06:39:04;12.20;;;8.70;;
16514;SDS011;8370;52.556;7.970;2023-04-24T06:41:30;15.40;;;8.63;;
16514;SDS011;8370;52.556;7.970;2023-04-24T06:43:55;16.67;;;8.83;;
16514;SDS011;8370;52.556;7.970;2023-04-24T06:46:21;14.03;;;8.87;;
16514;SDS011;8370;52.556;7.970;2023-04-24T06:48:51;13.47;;;8.60;;
16514;SDS011;8370;52.556;7.970;2023-04-24T06:51:17;13.33;;;8.63;;
16514;SDS011;8370;52.556;7.970;2023-04-24T06:53:43;16.97;;;10.17;;
16514;SDS011;8370;52.556;7.970;2023-04-24T06:56:09;16.40;;;9.10;;
16514;SDS011;8370;52.556;7.970;2023-04-24T06:58:35;16.63;;;9.03;;
16514;SDS011;8370;52.556;7.970;2023-04-24T07:01:00;14.53;;;9.13;;
16514;SDS011;8370;52.556;7.970;2023-04-24T07:03:26;12.07;;;8.50;;
16514;SDS011;8370;52.556;7.970;2023-04-24T07:05:51;16.40;;;8.87;;
16514;SDS011;8370;52.556;7.970;2023-04-24T07:08:18;13.43;;;8.43;;
16514;SDS011;8370;52.556;7.970;2023-04-24T07:10:45;12.27;;;8.27;;
16514;SDS011;8370;52.556;7.970;2023-04-24T07:13:10;15.03;;;8.53;;
16514;SDS011;8370;52.556;7.970;2023-04-24T07:15:36;14.00;;;8.90;;
16514;SDS011;8370;52.556;7.970;2023-04-24T07:18:01;12.00;;;8.43;;
16514;SDS011;8370;52.556;7.970;2023-04-24T07:20:27;11.83;;;8.23;;
16514;SDS011;8370;52.556;7.970;2023-04-24T07:22:53;15.63;;;8.50;;
16514;SDS011;8370;52.556;7.970;2023-04-24T07:25:19;13.93;;;8.33;;
16514;SDS011;8370;52.556;7.970;2023-04-24T07:27:44;10.13;;;7.63;;
16514;SDS011;8370;52.556;7.970;2023-04-24T07:30:10;11.03;;;7.73;;
16514;SDS011;8370;52.556;7.970;2023-04-24T07:32:36;15.87;;;8.33;;
16514;SDS011;8370;52.556;7.970;2023-04-24T07:35:01;14.87;;;8.57;;
16514;SDS011;8370;52.556;7.970;2023-04-24T07:37:27;10.53;;;7.80;;
16514;SDS011;8370;52.556;7.970;2023-04-24T07:39:53;9.23;;;6.87;;
16514;SDS011;8370;52.556;7.970;2023-04-24T07:42:19;9.73;;;7.63;;
16514;SDS011;8370;52.556;7.970;2023-04-24T07:44:45;15.07;;;7.30;;
16514;SDS011;8370;52.556;7.970;2023-04-24T07:47:12;12.30;;;6.83;;
16514;SDS011;8370;52.556;7.970;2023-04-24T07:49:40;9.27;;;6.30;;
16514;SDS011;8370;52.556;7.970;2023-04-24T07:52:06;9.20;;;7.03;;
16514;SDS011;8370;52.556;7.970;2023-04-24T07:54:32;11.07;;;6.20;;
16514;SDS011;8370;52.556;7.970;2023-04-24T07:56:57;9.97;;;6.73;;
16514;SDS011;8370;52.556;7.970;2023-04-24T07:59:23;9.83;;;6.10;;
16514;SDS011;8370;52.556;7.970;2023-04-24T08:01:48;7.80;;;6.20;;
16514;SDS011;8370;52.556;7.970;2023-04-24T08:04:14;9.10;;;7.23;;
16514;SDS011;8370;52.556;7.970;2023-04-24T08:06:40;12.03;;;7.00;;
16514;SDS011;8370;52.556;7.970;2023-04-24T08:09:05;8.07;;;6.33;;
16514;SDS011;8370;52.556;7.970;2023-04-24T08:11:31;16.23;;;7.83;;
16514;SDS011;8370;52.556;7.970;2023-04-24T08:13:57;12.90;;;8.17;;
16514;SDS011;8370;52.556;7.970;2023-04-24T08:16:22;13.47;;;9.13;;
16514;SDS011;8370;52.556;7.970;2023-04-24T08:18:51;13.53;;;8.93;;
16514;SDS011;8370;52.556;7.970;2023-04-24T08:21:16;10.40;;;8.13;;
16514;SDS011;8370;52.556;7.970;2023-04-24T08:23:43;12.33;;;7.53;;
16514;SDS011;8370;52.556;7.970;2023-04-24T08:26:09;14.23;;;7.87;;
16514;SDS011;8370;52.556;7.970;2023-04-24T08:28:36;12.40;;;7.80;;
16514;SDS011;8370;52.556;7.970;2023-04-24T08:31:01;12.93;;;6.87;;
16514;SDS011;8370;52.556;7.970;2023-04-24T08:33:27;9.70;;;7.00;;
16514;SDS011;8370;52.556;7.970;2023-04-24T08:35:59;9.70;;;6.47;;
16514;SDS011;8370;52.556;7.970;2023-04-24T08:38:28;8.47;;;6.60;;
16514;SDS011;8370;52.556;7.970;2023-04-24T08:40:54;8.40;;;6.03;;
16514;SDS011;8370;52.556;7.970;2023-04-24T08:43:24;9.03;;;5.80;;
16514;SDS011;8370;52.556;7.970;2023-04-24T08:45:51;7.30;;;5.60;;
16514;SDS011;8370;52.556;7.970;2023-04-24T08:48:17;6.23;;;4.60;;
16514;SDS011;8370;52.556;7.970;2023-04-24T08:50:43;8.63;;;4.30;;
16514;SDS011;8370;52.556;7.970;2023-04-24T08:53:10;5.43;;;3.90;;
16514;SDS011;8370;52.556;7.970;2023-04-24T08:55:36;6.90;;;4.57;;
16514;SDS011;8370;52.556;7.970;2023-04-24T08:58:03;5.80;;;4.70;;
16514;SDS011;8370;52.556;7.970;2023-04-24T09:00:29;6.60;;;4.47;;
16514;SDS011;8370;52.556;7.970;2023-04-24T09:02:55;10.57;;;4.87;;
16514;SDS011;8370;52.556;7.970;2023-04-24T09:05:21;7.07;;;4.67;;
16514;SDS011;8370;52.556;7.970;2023-04-24T09:07:55;6.27;;;4.23;;
16514;SDS011;8370;52.556;7.970;2023-04-24T09:10:22;5.73;;;4.67;;
16514;SDS011;8370;52.556;7.970;2023-04-24T09:12:50;5.27;;;3.70;;
16514;SDS011;8370;52.556;7.970;2023-04-24T09:15:15;6.10;;;4.60;;
16514;SDS011;8370;52.556;7.970;2023-04-24T09:17:41;7.33;;;4.10;;
16514;SDS011;8370;52.556;7.970;2023-04-24T09:20:08;5.70;;;4.27;;
16514;SDS011;8370;52.556;7.970;2023-04-24T09:22:34;7.13;;;4.27;;
16514;SDS011;8370;52.556;7.970;2023-04-24T09:25:03;6.77;;;4.43;;
16514;SDS011;8370;52.556;7.970;2023-04-24T09:27:31;8.93;;;5.37;;
16514;SDS011;8370;52.556;7.970;2023-04-24T09:29:58;7.63;;;6.43;;
16514;SDS011;8370;52.556;7.970;2023-04-24T09:32:24;7.00;;;6.30;;
16514;SDS011;8370;52.556;7.970;2023-04-24T09:35:04;6.33;;;5.37;;
16514;SDS011;8370;52.556;7.970;2023-04-24T09:37:41;5.50;;;3.50;;
16514;SDS011;8370;52.556;7.970;2023-04-24T09:40:09;3.77;;;3.20;;
16514;SDS011;8370;52.556;7.970;2023-04-24T09:42:36;4.90;;;3.60;;
16514;SDS011;8370;52.556;7.970;2023-04-24T09:45:02;4.10;;;3.27;;
16514;SDS011;8370;52.556;7.970;2023-04-24T09:47:28;3.87;;;2.90;;
16514;SDS011;8370;52.556;7.970;2023-04-24T09:50:14;3.13;;;2.53;;
16514;SDS011;8370;52.556;7.970;2023-04-24T09:52:45;3.87;;;3.23;;
16514;SDS011;8370;52.556;7.970;2023-04-24T09:55:19;5.37;;;3.57;;
16514;SDS011;8370;52.556;7.970;2023-04-24T09:57:49;4.47;;;3.63;;
16514;SDS011;8370;52.556;7.970;2023-04-24T10:00:23;5.50;;;3.60;;
16514;SDS011;8370;52.556;7.970;2023-04-24T10:05:28;4.03;;;2.70;;
16514;SDS011;8370;52.556;7.970;2023-04-24T10:07:56;3.70;;;2.90;;
16514;SDS011;8370;52.556;7.970;2023-04-24T10:10:23;3.30;;;2.87;;
16514;SDS011;8370;52.556;7.970;2023-04-24T10:12:48;5.10;;;3.17;;
16514;SDS011;8370;52.556;7.970;2023-04-24T10:15:15;3.87;;;3.20;;
16514;SDS011;8370;52.556;7.970;2023-04-24T10:17:45;5.17;;;2.73;;
16514;SDS011;8370;52.556;7.970;2023-04-24T10:20:27;4.57;;;2.73;;
16514;SDS011;8370;52.556;7.970;2023-04-24T10:22:55;3.80;;;3.03;;
16514;SDS011;8370;52.556;7.970;2023-04-24T10:25:28;4.57;;;3.10;;
16514;SDS011;8370;52.556;7.970;2023-04-24T10:27:56;7.37;;;3.30;;
16514;SDS011;8370;52.556;7.970;2023-04-24T10:30:24;5.10;;;2.80;;
16514;SDS011;8370;52.556;7.970;2023-04-24T10:32:51;4.27;;;2.77;;
16514;SDS011;8370;52.556;7.970;2023-04-24T10:35:17;3.87;;;2.97;;
16514;SDS011;8370;52.556;7.970;2023-04-24T10:40:31;3.67;;;2.37;;
16514;SDS011;8370;52.556;7.970;2023-04-24T10:42:59;3.30;;;2.50;;
16514;SDS011;8370;52.556;7.970;2023-04-24T10:45:27;5.20;;;2.50;;
16514;SDS011;8370;52.556;7.970;2023-04-24T10:48:00;4.67;;;2.40;;
16514;SDS011;8370;52.556;7.970;2023-04-24T10:50:28;5.50;;;3.17;;
16514;SDS011;8370;52.556;7.970;2023-04-24T10:53:06;8.20;;;2.33;;
16514;SDS011;8370;52.556;7.970;2023-04-24T10:55:43;4.07;;;2.20;;
16514;SDS011;8370;52.556;7.970;2023-04-24T10:58:13;4.27;;;2.50;;
16514;SDS011;8370;52.556;7.970;2023-04-24T11:00:41;3.77;;;2.60;;
16514;SDS011;8370;52.556;7.970;2023-04-24T11:03:24;8.23;;;2.73;;
16514;SDS011;8370;52.556;7.970;2023-04-24T11:05:52;4.27;;;2.73;;
16514;SDS011;8370;52.556;7.970;2023-04-24T11:08:22;4.93;;;2.33;;
16514;SDS011;8370;52.556;7.970;2023-04-24T11:10:59;2.77;;;2.07;;
16514;SDS011;8370;52.556;7.970;2023-04-24T11:13:27;6.47;;;3.27;;
16514;SDS011;8370;52.556;7.970;2023-04-24T11:18:52;5.97;;;3.67;;
16514;SDS011;8370;52.556;7.970;2023-04-24T11:21:25;5.93;;;4.40;;
16514;SDS011;8370;52.556;7.970;2023-04-24T11:23:51;6.83;;;3.20;;
16514;SDS011;8370;52.556;7.970;2023-04-24T11:26:17;7.53;;;3.87;;
16514;SDS011;8370;52.556;7.970;2023-04-24T11:28:49;5.93;;;4.07;;
16514;SDS011;8370;52.556;7.970;2023-04-24T11:34:11;14.17;;;7.63;;
16514;SDS011;8370;52.556;7.970;2023-04-24T11:36:39;17.30;;;9.10;;
16514;SDS011;8370;52.556;7.970;2023-04-24T11:39:07;19.37;;;9.97;;
16514;SDS011;8370;52.556;7.970;2023-04-24T11:41:33;17.93;;;9.83;;
16514;SDS011;8370;52.556;7.970;2023-04-24T11:44:00;19.23;;;8.93;;
16514;SDS011;8370;52.556;7.970;2023-04-24T11:46:29;16.30;;;8.80;;
16514;SDS011;8370;52.556;7.970;2023-04-24T11:48:56;20.37;;;10.93;;
16514;SDS011;8370;52.556;7.970;2023-04-24T11:51:23;18.87;;;10.03;;
16514;SDS011;8370;52.556;7.970;2023-04-24T11:53:50;21.17;;;11.13;;
16514;SDS011;8370;52.556;7.970;2023-04-24T11:56:19;17.87;;;9.50;;
16514;SDS011;8370;52.556;7.970;2023-04-24T11:58:50;21.87;;;9.77;;
16514;SDS011;8370;52.556;7.970;2023-04-24T12:01:17;19.27;;;10.70;;
16514;SDS011;8370;52.556;7.970;2023-04-24T12:03:47;21.80;;;10.30;;
16514;SDS011;8370;52.556;7.970;2023-04-24T12:06:13;17.17;;;8.57;;
16514;SDS011;8370;52.556;7.970;2023-04-24T12:08:39;19.07;;;9.53;;
16514;SDS011;8370;52.556;7.970;2023-04-24T12:11:05;18.77;;;8.80;;
16514;SDS011;8370;52.556;7.970;2023-04-24T12:13:32;15.33;;;8.83;;
16514;SDS011;8370;52.556;7.970;2023-04-24T12:15:58;15.23;;;8.83;;
16514;SDS011;8370;52.556;7.970;2023-04-24T12:18:25;16.63;;;8.50;;
16514;SDS011;8370;52.556;7.970;2023-04-24T12:20:51;19.07;;;9.53;;
16514;SDS011;8370;52.556;7.970;2023-04-24T12:23:16;14.17;;;8.80;;
16514;SDS011;8370;52.556;7.970;2023-04-24T12:25:59;14.27;;;7.97;;
16514;SDS011;8370;52.556;7.970;2023-04-24T12:28:33;19.20;;;9.00;;
16514;SDS011;8370;52.556;7.970;2023-04-24T12:31:03;19.30;;;8.67;;
16514;SDS011;8370;52.556;7.970;2023-04-24T12:33:32;13.17;;;7.97;;
16514;SDS011;8370;52.556;7.970;2023-04-24T12:35:59;18.83;;;9.67;;
16514;SDS011;8370;52.556;7.970;2023-04-24T12:38:26;16.43;;;8.00;;
16514;SDS011;8370;52.556;7.970;2023-04-24T12:41:13;10.07;;;6.60;;
16514;SDS011;8370;52.556;7.970;2023-04-24T12:43:38;19.13;;;6.83;;
16514;SDS011;8370;52.556;7.970;2023-04-24T12:46:19;15.27;;;6.43;;
16514;SDS011;8370;52.556;7.970;2023-04-24T12:48:45;12.23;;;6.40;;
16514;SDS011;8370;52.556;7.970;2023-04-24T12:51:10;17.63;;;6.33;;
16514;SDS011;8370;52.556;7.970;2023-04-24T12:53:36;13.80;;;5.57;;
16514;SDS011;8370;52.556;7.970;2023-04-24T12:56:01;12.87;;;5.80;;
16514;SDS011;8370;52.556;7.970;2023-04-24T12:58:27;11.07;;;4.80;;
16514;SDS011;8370;52.556;7.970;2023-04-24T13:00:52;16.47;;;5.93;;
16514;SDS011;8370;52.556;7.970;2023-04-24T13:03:18;15.03;;;6.87;;
16514;SDS011;8370;52.556;7.970;2023-04-24T13:05:44;15.60;;;6.10;;
16514;SDS011;8370;52.556;7.970;2023-04-24T13:08:09;12.13;;;5.37;;
16514;SDS011;8370;52.556;7.970;2023-04-24T13:10:35;13.50;;;5.80;;
16514;SDS011;8370;52.556;7.970;2023-04-24T13:13:00;21.53;;;6.40;;
16514;SDS011;8370;52.556;7.970;2023-04-24T13:15:26;16.90;;;5.23;;
16514;SDS011;8370;52.556;7.970;2023-04-24T13:17:52;11.93;;;6.03;;
16514;SDS011;8370;52.556;7.970;2023-04-24T13:20:17;12.23;;;5.33;;
16514;SDS011;8370;52.556;7.970;2023-04-24T13:22:43;17.70;;;6.10;;
16514;SDS011;8370;52.556;7.970;2023-04-24T13:25:09;14.37;;;6.23;;
16514;SDS011;8370;52.556;7.970;2023-04-24T13:27:35;14.87;;;5.60;;
16514;SDS011;8370;52.556;7.970;2023-04-24T13:30:00;12.30;;;5.57;;
16514;SDS011;8370;52.556;7.970;2023-04-24T13:32:26;11.47;;;5.20;;
16514;SDS011;8370;52.556;7.970;2023-04-24T13:34:52;14.17;;;5.53;;
16514;SDS011;8370;52.556;7.970;2023-04-24T13:37:18;13.07;;;5.73;;
16514;SDS011;8370;52.556;7.970;2023-04-24T13:39:43;14.17;;;5.77;;
16514;SDS011;8370;52.556;7.970;2023-04-24T13:42:09;14.93;;;6.77;;
16514;SDS011;8370;52.556;7.970;2023-04-24T13:44:34;18.90;;;6.57;;
16514;SDS011;8370;52.556;7.970;2023-04-24T13:47:00;10.10;;;5.83;;
16514;SDS011;8370;52.556;7.970;2023-04-24T13:49:26;14.93;;;6.97;;
16514;SDS011;8370;52.556;7.970;2023-04-24T13:51:52;19.83;;;7.53;;
16514;SDS011;8370;52.556;7.970;2023-04-24T13:54:18;14.63;;;6.37;;
16514;SDS011;8370;52.556;7.970;2023-04-24T13:56:44;21.47;;;7.53;;
16514;SDS011;8370;52.556;7.970;2023-04-24T13:59:11;19.37;;;6.90;;
16514;SDS011;8370;52.556;7.970;2023-04-24T14:01:37;17.30;;;6.73;;
16514;SDS011;8370;52.556;7.970;2023-04-24T14:04:02;14.83;;;5.43;;
16514;SDS011;8370;52.556;7.970;2023-04-24T14:06:28;15.10;;;5.63;;
16514;SDS011;8370;52.556;7.970;2023-04-24T14:08:54;11.03;;;4.27;;
16514;SDS011;8370;52.556;7.970;2023-04-24T14:11:19;8.87;;;4.33;;
16514;SDS011;8370;52.556;7.970;2023-04-24T14:13:45;11.97;;;4.50;;
16514;SDS011;8370;52.556;7.970;2023-04-24T14:16:11;12.07;;;4.80;;
16514;SDS011;8370;52.556;7.970;2023-04-24T14:18:37;9.37;;;4.70;;
16514;SDS011;8370;52.556;7.970;2023-04-24T14:21:03;7.97;;;4.47;;
16514;SDS011;8370;52.556;7.970;2023-04-24T14:23:29;17.10;;;4.93;;
16514;SDS011;8370;52.556;7.970;2023-04-24T14:25:55;12.90;;;5.03;;
16514;SDS011;8370;52.556;7.970;2023-04-24T14:28:21;7.33;;;3.73;;
16514;SDS011;8370;52.556;7.970;2023-04-24T14:30:47;9.60;;;3.53;;
16514;SDS011;8370;52.556;7.970;2023-04-24T14:33:13;8.73;;;4.03;;
16514;SDS011;8370;52.556;7.970;2023-04-24T14:35:39;13.70;;;4.60;;
16514;SDS011;8370;52.556;7.970;2023-04-24T14:38:06;15.33;;;4.53;;
16514;SDS011;8370;52.556;7.970;2023-04-24T14:40:32;11.70;;;4.93;;
16514;SDS011;8370;52.556;7.970;2023-04-24T14:42:58;9.97;;;4.13;;
16514;SDS011;8370;52.556;7.970;2023-04-24T14:45:24;12.93;;;3.83;;
16514;SDS011;8370;52.556;7.970;2023-04-24T14:47:50;9.83;;;4.37;;
16514;SDS011;8370;52.556;7.970;2023-04-24T14:50:16;9.03;;;3.90;;
16514;SDS011;8370;52.556;7.970;2023-04-24T14:52:41;7.13;;;3.53;;
16514;SDS011;8370;52.556;7.970;2023-04-24T14:55:07;11.33;;;4.30;;
16514;SDS011;8370;52.556;7.970;2023-04-24T14:57:33;9.47;;;3.90;;
16514;SDS011;8370;52.556;7.970;2023-04-24T14:59:59;5.57;;;2.83;;
16514;SDS011;8370;52.556;7.970;2023-04-24T15:02:25;7.43;;;3.17;;
16514;SDS011;8370;52.556;7.970;2023-04-24T15:04:50;4.83;;;2.43;;
16514;SDS011;8370;52.556;7.970;2023-04-24T15:07:16;4.43;;;2.90;;